createdAt,value
2022-10-18T00:01:20.410Z,8.81
2022-10-18T00:05:20.292Z,8.84
2022-10-18T00:09:19.336Z,8.93
2022-10-18T00:13:18.956Z,9.06
2022-10-18T00:17:20.679Z,9.25
2022-10-18T00:21:22.291Z,9.41
2022-10-18T00:25:22.013Z,9.32
2022-10-18T00:29:21.827Z,9.29
2022-10-18T00:33:23.705Z,9.28
2022-10-18T00:37:23.378Z,9.15
2022-10-18T00:41:23.431Z,9.20
2022-10-18T00:45:25.034Z,9.17
2022-10-18T00:49:30.671Z,8.84
2022-10-18T00:53:30.341Z,8.82
2022-10-18T00:57:29.867Z,9.00
2022-10-18T01:01:29.628Z,8.96
2022-10-18T01:05:31.407Z,8.84
2022-10-18T01:09:38.772Z,8.92
2022-10-18T01:13:49.321Z,8.77
2022-10-18T01:17:58.001Z,8.73
2022-10-18T01:22:06.919Z,8.67
2022-10-18T01:26:26.347Z,8.64
2022-10-18T01:30:49.630Z,8.53
2022-10-18T01:34:53.407Z,8.41
2022-10-18T01:38:57.083Z,8.28
2022-10-18T01:42:57.146Z,8.37
2022-10-18T01:46:59.998Z,8.31
2022-10-18T01:50:59.713Z,8.37
2022-10-18T01:54:59.672Z,8.23
2022-10-18T01:59:10.654Z,8.08
2022-10-18T02:03:18.543Z,7.94
2022-10-18T02:07:30.060Z,7.91
2022-10-18T02:11:32.315Z,7.93
2022-10-18T02:15:36.573Z,7.95
2022-10-18T02:19:43.561Z,8.02
2022-10-18T02:23:45.326Z,7.48
2022-10-18T02:27:44.582Z,7.68
2022-10-18T02:31:47.145Z,7.54
2022-10-18T02:35:54.047Z,7.54
2022-10-18T02:39:53.949Z,7.59
2022-10-18T02:43:53.803Z,7.35
2022-10-18T02:47:53.480Z,7.16
2022-10-18T02:51:54.875Z,7.16
2022-10-18T02:55:54.561Z,7.10
2022-10-18T02:59:53.849Z,6.92
2022-10-18T03:03:53.436Z,6.82
2022-10-18T03:07:54.887Z,6.94
2022-10-18T03:11:54.404Z,7.21
2022-10-18T03:15:53.962Z,7.35
2022-10-18T03:20:02.241Z,7.19
2022-10-18T03:24:04.167Z,7.27
2022-10-18T03:28:03.720Z,7.66
2022-10-18T03:32:03.281Z,7.78
2022-10-18T03:36:02.655Z,7.73
2022-10-18T03:40:04.382Z,7.75
2022-10-18T03:44:03.939Z,7.39
2022-10-18T03:48:03.649Z,7.64
2022-10-18T03:52:03.281Z,7.58
2022-10-18T03:56:05.516Z,7.58
2022-10-18T04:00:06.676Z,7.47
2022-10-18T04:04:11.058Z,7.29
2022-10-18T04:08:10.972Z,7.15
2022-10-18T04:12:13.042Z,7.00
2022-10-18T04:16:14.918Z,6.79
2022-10-18T04:20:14.786Z,7.00
2022-10-18T04:24:14.835Z,7.05
2022-10-18T04:28:18.873Z,6.82
2022-10-18T04:32:20.976Z,7.24
2022-10-18T04:36:22.583Z,7.01
2022-10-18T04:40:26.292Z,6.81
2022-10-18T04:44:29.327Z,7.12
2022-10-18T04:48:29.531Z,7.18
2022-10-18T04:52:33.438Z,7.42
2022-10-18T04:56:37.965Z,7.63
2022-10-18T05:00:40.586Z,7.60
2022-10-18T05:04:42.696Z,7.58
2022-10-18T05:08:44.128Z,7.41
2022-10-18T05:12:44.864Z,7.25
2022-10-18T05:16:47.305Z,7.11
2022-10-18T05:20:47.253Z,7.37
2022-10-18T05:24:50.381Z,7.24
2022-10-18T05:28:51.754Z,7.44
2022-10-18T05:32:59.640Z,7.28
2022-10-18T05:37:28.241Z,8.06
2022-10-18T05:41:33.067Z,8.66
2022-10-18T05:45:36.825Z,8.77
2022-10-18T05:50:05.136Z,8.78
2022-10-18T05:54:22.096Z,8.93
2022-10-18T05:58:27.233Z,9.41
2022-10-18T06:02:30.807Z,9.87
2022-10-18T06:06:45.113Z,10.94
2022-10-18T06:10:52.118Z,11.70
2022-10-18T06:15:05.473Z,12.35
2022-10-18T06:19:06.303Z,12.81
2022-10-18T06:23:09.701Z,13.03
2022-10-18T06:27:20.192Z,13.16
2022-10-18T06:31:24.106Z,13.61
2022-10-18T06:35:38.082Z,14.18
2022-10-18T06:39:53.993Z,13.93
2022-10-18T06:44:44.667Z,13.44
2022-10-18T06:50:12.074Z,13.40
2022-10-18T07:42:48.505Z,14.63
2022-10-18T07:59:46.946Z,14.22
2022-10-18T08:00:41.736Z,14.34
2022-10-18T08:10:45.757Z,14.77
2022-10-18T08:22:10.659Z,14.96
2022-10-18T08:27:18.307Z,15.23
2022-10-18T08:34:22.426Z,15.55
2022-10-18T08:48:50.345Z,16.48
2022-10-18T08:53:15.766Z,16.60
2022-10-18T08:57:18.066Z,16.96
2022-10-18T09:01:38.348Z,17.05
2022-10-18T09:06:04.226Z,16.74
2022-10-18T09:10:20.723Z,16.86
2022-10-18T09:15:07.938Z,16.77
2022-10-18T09:19:27.233Z,17.56
2022-10-18T09:23:40.265Z,17.54
2022-10-18T09:27:50.926Z,17.50
2022-10-18T09:31:58.127Z,17.57
2022-10-18T09:36:02.755Z,17.64
2022-10-18T09:40:09.024Z,17.90
2022-10-18T09:44:17.852Z,17.80
2022-10-18T09:48:24.179Z,18.04
2022-10-18T09:53:17.467Z,18.21
2022-10-18T09:57:54.809Z,18.40
2022-10-18T10:02:01.894Z,18.50
2022-10-18T10:06:40.318Z,18.66
2022-10-18T10:11:54.186Z,18.93
2022-10-18T10:16:18.185Z,19.08
2022-10-18T10:20:38.606Z,19.16
2022-10-18T10:25:03.437Z,19.04
2022-10-18T10:29:13.251Z,19.22
2022-10-18T10:45:03.590Z,19.15
2022-10-18T10:49:39.574Z,19.38
2022-10-18T10:54:12.922Z,19.37
2022-10-18T10:58:31.430Z,19.65
2022-10-18T11:03:10.829Z,19.50
2022-10-18T11:07:54.892Z,19.92
2022-10-18T11:12:06.212Z,19.94
2022-10-18T11:16:12.819Z,19.98
2022-10-18T11:20:33.978Z,19.95
2022-10-18T11:24:39.352Z,20.23
2022-10-18T11:29:26.820Z,20.37
2022-10-18T11:34:15.798Z,20.59
2022-10-18T11:38:40.671Z,20.64
2022-10-18T11:42:54.677Z,20.68
2022-10-18T11:47:09.688Z,20.47
2022-10-18T11:51:50.300Z,20.62
2022-10-18T11:56:19.423Z,20.55
2022-10-18T12:00:56.070Z,20.31
2022-10-18T12:09:35.255Z,20.53
2022-10-18T12:13:48.994Z,20.38
2022-10-18T12:17:57.285Z,20.22
2022-10-18T12:21:59.842Z,20.31
2022-10-18T12:26:05.399Z,20.31
2022-10-18T12:30:26.007Z,20.44
2022-10-18T12:39:43.335Z,20.86
2022-10-18T12:43:57.648Z,21.27
2022-10-18T12:48:04.745Z,21.42
2022-10-18T12:52:11.051Z,21.37
2022-10-18T12:56:42.971Z,21.51
2022-10-18T13:00:55.220Z,21.58
2022-10-18T13:04:56.749Z,21.38
2022-10-18T13:09:23.363Z,21.24
2022-10-18T13:13:55.945Z,21.25
2022-10-18T13:18:01.756Z,21.43
2022-10-18T13:22:21.243Z,21.55
2022-10-18T13:26:35.988Z,21.45
2022-10-18T13:30:51.270Z,21.18
2022-10-18T13:34:54.673Z,20.95
2022-10-18T13:39:10.204Z,20.86
2022-10-18T13:44:15.530Z,20.63
2022-10-18T13:48:51.928Z,20.54
2022-10-18T13:53:24.769Z,20.65
2022-10-18T13:57:43.727Z,20.40
2022-10-18T14:02:06.523Z,20.57
2022-10-18T14:06:11.633Z,20.52
2022-10-18T14:10:43.281Z,20.60
2022-10-18T14:14:57.875Z,20.99
2022-10-18T14:19:10.334Z,21.05
2022-10-18T14:23:16.465Z,21.01
2022-10-18T14:27:20.014Z,20.82
2022-10-18T14:31:22.122Z,20.79
2022-10-18T14:35:33.910Z,20.60
2022-10-18T14:39:33.713Z,20.43
2022-10-18T14:43:33.337Z,20.36
2022-10-18T14:47:36.003Z,20.40
2022-10-18T14:51:41.008Z,20.26
2022-10-18T14:55:42.695Z,20.24
2022-10-18T14:59:48.869Z,20.27
2022-10-18T15:03:49.337Z,20.37
2022-10-18T15:07:53.186Z,20.38
2022-10-18T15:11:54.514Z,20.40
2022-10-18T15:15:55.114Z,20.38
2022-10-18T15:20:03.288Z,20.28
2022-10-18T15:24:30.454Z,20.31
2022-10-18T15:28:32.181Z,20.19
2022-10-18T15:32:33.559Z,19.81
2022-10-18T15:36:34.997Z,19.55
2022-10-18T15:40:44.511Z,19.36
2022-10-18T15:44:50.667Z,19.26
2022-10-18T15:48:50.304Z,19.17
2022-10-18T15:52:49.931Z,19.05
2022-10-18T15:56:51.704Z,18.78
2022-10-18T16:00:52.634Z,18.30
2022-10-18T16:04:52.276Z,17.86
2022-10-18T16:08:53.392Z,17.66
2022-10-18T16:16:56.297Z,17.20
2022-10-18T16:20:56.225Z,16.77
2022-10-18T16:24:56.176Z,16.58
2022-10-18T16:28:58.989Z,16.27
2022-10-18T16:32:58.630Z,16.35
2022-10-18T16:36:57.730Z,16.15
2022-10-18T16:40:57.427Z,15.99
2022-10-18T16:44:59.121Z,15.62
2022-10-18T16:48:59.546Z,15.26
2022-10-18T16:52:59.001Z,15.21
2022-10-18T16:56:58.532Z,15.23
2022-10-18T17:01:02.909Z,15.50
2022-10-18T17:05:05.547Z,15.83
2022-10-18T17:09:05.521Z,15.77
2022-10-18T17:13:07.139Z,15.57
2022-10-18T17:17:11.926Z,15.44
2022-10-18T17:21:10.932Z,15.34
2022-10-18T17:25:10.860Z,15.28
2022-10-18T17:29:09.751Z,15.22
2022-10-18T17:33:11.982Z,15.14
2022-10-18T17:37:11.550Z,14.71
2022-10-18T17:41:12.690Z,14.51
2022-10-18T17:45:13.223Z,14.51
2022-10-18T17:49:16.391Z,14.52
2022-10-18T17:53:18.008Z,14.52
2022-10-18T17:57:17.917Z,14.57
2022-10-18T18:01:19.762Z,14.63
2022-10-18T18:05:21.521Z,14.82
2022-10-18T18:09:21.512Z,14.72
2022-10-18T18:13:21.128Z,14.39
2022-10-18T18:17:28.730Z,14.05
2022-10-18T18:21:36.322Z,13.68
2022-10-18T18:25:35.913Z,13.23
2022-10-18T18:29:34.894Z,13.15
2022-10-18T18:33:34.363Z,12.70
2022-10-18T18:37:35.595Z,12.76
2022-10-18T18:41:36.411Z,12.76
2022-10-18T18:45:35.878Z,12.70
2022-10-18T18:49:35.051Z,12.39
2022-10-18T18:53:38.035Z,12.02
2022-10-18T18:57:37.576Z,11.98
2022-10-18T19:01:38.329Z,12.04
2022-10-18T19:05:38.616Z,12.02
2022-10-18T19:09:41.956Z,12.08
2022-10-18T19:13:41.690Z,12.39
2022-10-18T19:17:41.272Z,12.94
2022-10-18T19:21:42.620Z,13.02
2022-10-18T19:25:44.376Z,13.38
2022-10-18T19:29:45.678Z,13.43
2022-10-18T19:33:48.330Z,13.51
2022-10-18T19:37:58.286Z,13.35
2022-10-18T19:42:02.931Z,13.33
2022-10-18T19:46:04.631Z,13.14
2022-10-18T19:50:04.237Z,12.94
2022-10-18T19:54:04.010Z,13.09
2022-10-18T19:58:05.766Z,13.24
2022-10-18T20:02:05.794Z,13.39
2022-10-18T20:06:05.829Z,13.50
2022-10-18T20:10:05.774Z,13.43
2022-10-18T20:14:09.241Z,13.17
2022-10-18T20:18:09.151Z,13.21
2022-10-18T20:22:08.715Z,13.02
2022-10-18T20:26:08.745Z,12.79
2022-10-18T20:30:11.803Z,12.77
2022-10-18T20:34:14.068Z,12.40
2022-10-18T20:38:13.788Z,11.69
2022-10-18T20:42:13.313Z,11.12
2022-10-18T20:46:14.823Z,11.41
2022-10-18T20:50:14.337Z,11.88
2022-10-18T20:54:14.226Z,11.94
2022-10-18T20:58:13.922Z,11.72
2022-10-18T21:02:15.840Z,11.53
2022-10-18T21:06:17.251Z,11.44
2022-10-18T21:10:16.757Z,11.43
2022-10-18T21:14:17.443Z,11.81
2022-10-18T21:18:18.774Z,11.74
2022-10-18T21:22:18.230Z,11.67
2022-10-18T21:26:18.937Z,11.88
2022-10-18T21:30:18.541Z,12.00
2022-10-18T21:34:20.214Z,11.76
2022-10-18T21:38:19.785Z,11.45
2022-10-18T21:42:19.044Z,11.23
2022-10-18T21:46:20.422Z,11.13
2022-10-18T21:50:22.058Z,10.77
2022-10-18T21:54:21.704Z,10.46
2022-10-18T21:58:21.710Z,10.60
2022-10-18T22:02:21.529Z,10.62
2022-10-18T22:06:24.739Z,10.51
2022-10-18T22:10:24.507Z,10.34
2022-10-18T22:14:24.269Z,9.77
2022-10-18T22:18:24.631Z,9.72
2022-10-18T22:22:26.609Z,9.84
2022-10-18T22:26:28.065Z,9.93
2022-10-18T22:30:27.821Z,10.01
2022-10-18T22:34:29.275Z,9.92
2022-10-18T22:38:34.933Z,9.79
2022-10-18T22:46:38.885Z,10.25
2022-10-18T22:50:38.138Z,10.80
2022-10-18T22:54:39.740Z,11.08
2022-10-18T22:58:40.600Z,11.15
2022-10-18T23:02:39.659Z,10.71
2022-10-18T23:06:38.858Z,10.35
2022-10-18T23:10:41.553Z,10.50
2022-10-18T23:14:40.555Z,10.78
2022-10-18T23:22:44.327Z,10.94
2022-10-18T23:26:45.705Z,10.90
2022-10-18T23:30:45.305Z,11.00
2022-10-18T23:34:44.489Z,10.84
2022-10-18T23:38:44.034Z,10.63
2022-10-18T23:42:45.713Z,10.37
2022-10-18T23:46:45.501Z,10.28
2022-10-18T23:50:45.367Z,10.57
2022-10-18T23:58:51.458Z,10.53
